sensor_id;sensor_type;location;lat;lon;timestamp;temperature;humidity
2647;DHT22;1333;50.958;6.770;2023-11-21T00:00:53;11.00;99.90
2647;DHT22;1333;50.958;6.770;2023-11-21T00:03:19;11.00;99.90
2647;DHT22;1333;50.958;6.770;2023-11-21T00:05:44;11.00;99.90
2647;DHT22;1333;50.958;6.770;2023-11-21T00:08:10;11.00;99.90
2647;DHT22;1333;50.958;6.770;2023-11-21T00:10:36;10.90;99.90
2647;DHT22;1333;50.958;6.770;2023-11-21T00:13:04;11.00;99.90
2647;DHT22;1333;50.958;6.770;2023-11-21T00:15:29;11.00;99.90
2647;DHT22;1333;50.958;6.770;2023-11-21T00:17:55;10.90;99.90
2647;DHT22;1333;50.958;6.770;2023-11-21T00:20:20;10.90;99.90
2647;DHT22;1333;50.958;6.770;2023-11-21T00:22:46;10.90;99.90
2647;DHT22;1333;50.958;6.770;2023-11-21T00:25:12;10.90;99.90
2647;DHT22;1333;50.958;6.770;2023-11-21T00:27:39;10.90;99.90
2647;DHT22;1333;50.958;6.770;2023-11-21T00:30:05;10.90;99.90
2647;DHT22;1333;50.958;6.770;2023-11-21T00:32:32;10.90;99.90
2647;DHT22;1333;50.958;6.770;2023-11-21T00:34:57;10.90;99.90
2647;DHT22;1333;50.958;6.770;2023-11-21T00:37:24;10.90;99.90
2647;DHT22;1333;50.958;6.770;2023-11-21T00:39:50;10.90;99.90
2647;DHT22;1333;50.958;6.770;2023-11-21T00:42:15;10.90;99.90
2647;DHT22;1333;50.958;6.770;2023-11-21T00:44:41;10.90;99.90
2647;DHT22;1333;50.958;6.770;2023-11-21T00:47:07;10.80;99.90
2647;DHT22;1333;50.958;6.770;2023-11-21T00:49:33;10.80;99.90
2647;DHT22;1333;50.958;6.770;2023-11-21T00:51:59;10.80;99.90
2647;DHT22;1333;50.958;6.770;2023-11-21T00:54:24;10.80;99.90
2647;DHT22;1333;50.958;6.770;2023-11-21T00:56:50;10.80;99.90
2647;DHT22;1333;50.958;6.770;2023-11-21T00:59:15;10.80;99.90
2647;DHT22;1333;50.958;6.770;2023-11-21T01:01:41;10.70;99.90
2647;DHT22;1333;50.958;6.770;2023-11-21T01:04:06;10.70;99.90
2647;DHT22;1333;50.958;6.770;2023-11-21T01:06:32;10.70;99.90
2647;DHT22;1333;50.958;6.770;2023-11-21T01:08:58;10.60;99.90
2647;DHT22;1333;50.958;6.770;2023-11-21T01:11:24;10.60;99.90
2647;DHT22;1333;50.958;6.770;2023-11-21T01:13:49;10.50;99.90
2647;DHT22;1333;50.958;6.770;2023-11-21T01:16:14;10.50;99.90
2647;DHT22;1333;50.958;6.770;2023-11-21T01:18:40;10.40;99.90
2647;DHT22;1333;50.958;6.770;2023-11-21T01:21:06;10.40;99.90
2647;DHT22;1333;50.958;6.770;2023-11-21T01:23:32;10.40;99.90
2647;DHT22;1333;50.958;6.770;2023-11-21T01:25:58;10.40;99.90
2647;DHT22;1333;50.958;6.770;2023-11-21T01:28:24;10.40;99.90
2647;DHT22;1333;50.958;6.770;2023-11-21T01:30:49;10.40;99.90
2647;DHT22;1333;50.958;6.770;2023-11-21T01:33:15;10.40;99.90
2647;DHT22;1333;50.958;6.770;2023-11-21T01:35:41;10.40;99.90
2647;DHT22;1333;50.958;6.770;2023-11-21T01:38:07;10.40;99.90
2647;DHT22;1333;50.958;6.770;2023-11-21T01:40:34;10.30;99.90
2647;DHT22;1333;50.958;6.770;2023-11-21T01:43:00;10.30;99.90
2647;DHT22;1333;50.958;6.770;2023-11-21T01:45:25;10.20;99.90
2647;DHT22;1333;50.958;6.770;2023-11-21T01:47:51;10.10;99.90
2647;DHT22;1333;50.958;6.770;2023-11-21T01:50:17;10.10;99.90
2647;DHT22;1333;50.958;6.770;2023-11-21T01:52:46;10.00;99.90
2647;DHT22;1333;50.958;6.770;2023-11-21T01:55:15;10.00;99.90
2647;DHT22;1333;50.958;6.770;2023-11-21T01:57:43;9.90;99.90
2647;DHT22;1333;50.958;6.770;2023-11-21T02:00:09;9.80;99.90
2647;DHT22;1333;50.958;6.770;2023-11-21T02:02:48;9.80;99.90
2647;DHT22;1333;50.958;6.770;2023-11-21T02:05:18;9.70;99.90
2647;DHT22;1333;50.958;6.770;2023-11-21T02:07:44;9.70;99.90
2647;DHT22;1333;50.958;6.770;2023-11-21T02:10:10;9.70;99.90
2647;DHT22;1333;50.958;6.770;2023-11-21T02:12:41;9.70;99.90
2647;DHT22;1333;50.958;6.770;2023-11-21T02:15:08;9.60;99.90
2647;DHT22;1333;50.958;6.770;2023-11-21T02:17:43;9.70;99.90
2647;DHT22;1333;50.958;6.770;2023-11-21T02:20:13;9.70;99.90
2647;DHT22;1333;50.958;6.770;2023-11-21T02:22:41;9.70;99.90
2647;DHT22;1333;50.958;6.770;2023-11-21T02:25:08;9.70;99.90
2647;DHT22;1333;50.958;6.770;2023-11-21T02:27:33;9.70;99.90
2647;DHT22;1333;50.958;6.770;2023-11-21T02:29:59;9.70;99.90
2647;DHT22;1333;50.958;6.770;2023-11-21T02:32:26;9.70;99.90
2647;DHT22;1333;50.958;6.770;2023-11-21T02:34:52;9.70;99.90
2647;DHT22;1333;50.958;6.770;2023-11-21T02:37:17;9.80;99.90
2647;DHT22;1333;50.958;6.770;2023-11-21T02:39:43;9.80;99.90
2647;DHT22;1333;50.958;6.770;2023-11-21T02:42:08;9.80;99.90
2647;DHT22;1333;50.958;6.770;2023-11-21T02:44:34;9.80;99.90
2647;DHT22;1333;50.958;6.770;2023-11-21T02:47:00;9.90;99.90
2647;DHT22;1333;50.958;6.770;2023-11-21T02:49:25;9.90;99.90
2647;DHT22;1333;50.958;6.770;2023-11-21T02:51:54;9.90;99.90
2647;DHT22;1333;50.958;6.770;2023-11-21T02:54:20;9.90;99.90
2647;DHT22;1333;50.958;6.770;2023-11-21T02:56:47;9.90;99.90
2647;DHT22;1333;50.958;6.770;2023-11-21T02:59:13;9.90;99.90
2647;DHT22;1333;50.958;6.770;2023-11-21T03:01:38;10.00;99.90
2647;DHT22;1333;50.958;6.770;2023-11-21T03:04:04;10.00;99.90
2647;DHT22;1333;50.958;6.770;2023-11-21T03:06:30;10.00;99.90
2647;DHT22;1333;50.958;6.770;2023-11-21T03:08:55;10.00;99.90
2647;DHT22;1333;50.958;6.770;2023-11-21T03:11:21;10.00;99.90
2647;DHT22;1333;50.958;6.770;2023-11-21T03:13:46;10.00;99.90
2647;DHT22;1333;50.958;6.770;2023-11-21T03:16:12;10.00;99.90
2647;DHT22;1333;50.958;6.770;2023-11-21T03:18:38;10.00;99.90
2647;DHT22;1333;50.958;6.770;2023-11-21T03:21:08;10.00;99.90
2647;DHT22;1333;50.958;6.770;2023-11-21T03:23:36;10.00;99.90
2647;DHT22;1333;50.958;6.770;2023-11-21T03:26:02;10.00;99.90
2647;DHT22;1333;50.958;6.770;2023-11-21T03:28:28;10.00;99.90
2647;DHT22;1333;50.958;6.770;2023-11-21T03:30:54;10.00;99.90
2647;DHT22;1333;50.958;6.770;2023-11-21T03:33:19;10.10;99.90
2647;DHT22;1333;50.958;6.770;2023-11-21T03:35:45;10.10;99.90
2647;DHT22;1333;50.958;6.770;2023-11-21T03:38:11;10.10;99.90
2647;DHT22;1333;50.958;6.770;2023-11-21T03:40:37;10.10;99.90
2647;DHT22;1333;50.958;6.770;2023-11-21T03:43:05;10.10;99.90
2647;DHT22;1333;50.958;6.770;2023-11-21T03:45:31;10.10;99.90
2647;DHT22;1333;50.958;6.770;2023-11-21T03:47:57;10.10;99.90
2647;DHT22;1333;50.958;6.770;2023-11-21T03:50:22;10.10;99.90
2647;DHT22;1333;50.958;6.770;2023-11-21T03:52:48;10.10;99.90
2647;DHT22;1333;50.958;6.770;2023-11-21T03:55:13;10.10;99.90
2647;DHT22;1333;50.958;6.770;2023-11-21T03:57:40;10.10;99.90
2647;DHT22;1333;50.958;6.770;2023-11-21T04:00:06;10.10;99.90
2647;DHT22;1333;50.958;6.770;2023-11-21T04:02:34;10.10;99.90
2647;DHT22;1333;50.958;6.770;2023-11-21T04:04:59;10.10;99.90
2647;DHT22;1333;50.958;6.770;2023-11-21T04:07:25;10.10;99.90
2647;DHT22;1333;50.958;6.770;2023-11-21T04:09:50;10.10;99.90
2647;DHT22;1333;50.958;6.770;2023-11-21T04:12:16;10.10;99.90
2647;DHT22;1333;50.958;6.770;2023-11-21T04:14:41;10.10;99.90
2647;DHT22;1333;50.958;6.770;2023-11-21T04:17:07;10.10;99.90
2647;DHT22;1333;50.958;6.770;2023-11-21T04:19:32;10.10;99.90
2647;DHT22;1333;50.958;6.770;2023-11-21T04:21:58;10.10;99.90
2647;DHT22;1333;50.958;6.770;2023-11-21T04:24:23;10.10;99.90
2647;DHT22;1333;50.958;6.770;2023-11-21T04:26:49;10.10;99.90
2647;DHT22;1333;50.958;6.770;2023-11-21T04:29:14;10.10;99.90
2647;DHT22;1333;50.958;6.770;2023-11-21T04:31:40;10.10;99.90
2647;DHT22;1333;50.958;6.770;2023-11-21T04:34:06;10.00;99.90
2647;DHT22;1333;50.958;6.770;2023-11-21T04:36:32;10.00;99.90
2647;DHT22;1333;50.958;6.770;2023-11-21T04:38:57;10.00;99.90
2647;DHT22;1333;50.958;6.770;2023-11-21T04:41:23;10.00;99.90
2647;DHT22;1333;50.958;6.770;2023-11-21T04:43:49;10.00;99.90
2647;DHT22;1333;50.958;6.770;2023-11-21T04:46:14;10.00;99.90
2647;DHT22;1333;50.958;6.770;2023-11-21T04:48:40;10.00;99.90
2647;DHT22;1333;50.958;6.770;2023-11-21T04:51:06;9.90;99.90
2647;DHT22;1333;50.958;6.770;2023-11-21T04:53:32;9.90;99.90
2647;DHT22;1333;50.958;6.770;2023-11-21T04:55:57;9.90;99.90
2647;DHT22;1333;50.958;6.770;2023-11-21T04:58:23;9.90;99.90
2647;DHT22;1333;50.958;6.770;2023-11-21T05:00:48;9.90;99.90
2647;DHT22;1333;50.958;6.770;2023-11-21T05:03:15;9.80;99.90
2647;DHT22;1333;50.958;6.770;2023-11-21T05:05:40;9.80;99.90
2647;DHT22;1333;50.958;6.770;2023-11-21T05:08:06;9.70;99.90
2647;DHT22;1333;50.958;6.770;2023-11-21T05:10:31;9.70;99.90
2647;DHT22;1333;50.958;6.770;2023-11-21T05:12:57;9.70;99.90
2647;DHT22;1333;50.958;6.770;2023-11-21T05:15:23;9.70;99.90
2647;DHT22;1333;50.958;6.770;2023-11-21T05:17:49;9.70;99.90
2647;DHT22;1333;50.958;6.770;2023-11-21T05:20:17;9.70;99.90
2647;DHT22;1333;50.958;6.770;2023-11-21T05:22:46;9.70;99.90
2647;DHT22;1333;50.958;6.770;2023-11-21T05:25:12;9.70;99.90
2647;DHT22;1333;50.958;6.770;2023-11-21T05:27:38;9.70;99.90
2647;DHT22;1333;50.958;6.770;2023-11-21T05:30:05;9.70;99.90
2647;DHT22;1333;50.958;6.770;2023-11-21T05:32:31;9.80;99.90
2647;DHT22;1333;50.958;6.770;2023-11-21T05:34:56;9.70;99.90
2647;DHT22;1333;50.958;6.770;2023-11-21T05:37:22;9.70;99.90
2647;DHT22;1333;50.958;6.770;2023-11-21T05:39:49;9.70;99.90
2647;DHT22;1333;50.958;6.770;2023-11-21T05:42:14;9.70;99.90
2647;DHT22;1333;50.958;6.770;2023-11-21T05:44:42;9.70;99.90
2647;DHT22;1333;50.958;6.770;2023-11-21T05:47:09;9.70;99.90
2647;DHT22;1333;50.958;6.770;2023-11-21T05:49:35;9.70;99.90
2647;DHT22;1333;50.958;6.770;2023-11-21T05:52:00;9.60;99.90
2647;DHT22;1333;50.958;6.770;2023-11-21T05:54:26;9.60;99.90
2647;DHT22;1333;50.958;6.770;2023-11-21T05:56:51;9.60;99.90
2647;DHT22;1333;50.958;6.770;2023-11-21T05:59:17;9.50;99.90
2647;DHT22;1333;50.958;6.770;2023-11-21T06:01:43;9.50;99.90
2647;DHT22;1333;50.958;6.770;2023-11-21T06:04:08;9.50;99.90
2647;DHT22;1333;50.958;6.770;2023-11-21T06:06:35;9.50;99.90
2647;DHT22;1333;50.958;6.770;2023-11-21T06:09:00;9.50;99.90
2647;DHT22;1333;50.958;6.770;2023-11-21T06:11:26;9.50;99.90
2647;DHT22;1333;50.958;6.770;2023-11-21T06:13:52;9.50;99.90
2647;DHT22;1333;50.958;6.770;2023-11-21T06:16:18;9.50;99.90
2647;DHT22;1333;50.958;6.770;2023-11-21T06:18:45;9.50;99.90
2647;DHT22;1333;50.958;6.770;2023-11-21T06:21:11;9.50;99.90
2647;DHT22;1333;50.958;6.770;2023-11-21T06:23:37;9.60;99.90
2647;DHT22;1333;50.958;6.770;2023-11-21T06:26:03;9.60;99.90
2647;DHT22;1333;50.958;6.770;2023-11-21T06:28:30;9.60;99.90
2647;DHT22;1333;50.958;6.770;2023-11-21T06:30:56;9.60;99.90
2647;DHT22;1333;50.958;6.770;2023-11-21T06:33:22;9.70;99.90
2647;DHT22;1333;50.958;6.770;2023-11-21T06:35:48;9.70;99.90
2647;DHT22;1333;50.958;6.770;2023-11-21T06:38:13;9.70;99.90
2647;DHT22;1333;50.958;6.770;2023-11-21T06:40:39;9.70;99.90
2647;DHT22;1333;50.958;6.770;2023-11-21T06:43:04;9.70;99.90
2647;DHT22;1333;50.958;6.770;2023-11-21T06:45:32;9.70;99.90
2647;DHT22;1333;50.958;6.770;2023-11-21T06:47:59;9.80;99.90
2647;DHT22;1333;50.958;6.770;2023-11-21T06:50:25;9.80;99.90
2647;DHT22;1333;50.958;6.770;2023-11-21T06:52:50;9.80;99.90
2647;DHT22;1333;50.958;6.770;2023-11-21T06:55:16;9.90;99.90
2647;DHT22;1333;50.958;6.770;2023-11-21T06:57:41;9.90;99.90
2647;DHT22;1333;50.958;6.770;2023-11-21T07:00:07;9.90;99.90
2647;DHT22;1333;50.958;6.770;2023-11-21T07:02:36;10.00;99.90
2647;DHT22;1333;50.958;6.770;2023-11-21T07:05:02;10.00;99.90
2647;DHT22;1333;50.958;6.770;2023-11-21T07:07:28;10.00;99.90
2647;DHT22;1333;50.958;6.770;2023-11-21T07:09:53;10.10;99.90
2647;DHT22;1333;50.958;6.770;2023-11-21T07:12:19;10.10;99.90
2647;DHT22;1333;50.958;6.770;2023-11-21T07:14:44;10.10;99.90
2647;DHT22;1333;50.958;6.770;2023-11-21T07:17:11;10.10;99.90
2647;DHT22;1333;50.958;6.770;2023-11-21T07:19:39;10.20;99.90
2647;DHT22;1333;50.958;6.770;2023-11-21T07:22:06;10.20;99.90
2647;DHT22;1333;50.958;6.770;2023-11-21T07:24:34;10.30;99.90
2647;DHT22;1333;50.958;6.770;2023-11-21T07:26:59;10.30;99.90
2647;DHT22;1333;50.958;6.770;2023-11-21T07:29:26;10.30;99.90
2647;DHT22;1333;50.958;6.770;2023-11-21T07:31:52;10.30;99.90
2647;DHT22;1333;50.958;6.770;2023-11-21T07:34:19;10.30;99.90
2647;DHT22;1333;50.958;6.770;2023-11-21T07:36:45;10.40;99.90
2647;DHT22;1333;50.958;6.770;2023-11-21T07:39:10;10.40;99.90
2647;DHT22;1333;50.958;6.770;2023-11-21T07:41:36;10.50;99.90
2647;DHT22;1333;50.958;6.770;2023-11-21T07:44:03;10.50;99.90
2647;DHT22;1333;50.958;6.770;2023-11-21T07:46:29;10.60;99.90
2647;DHT22;1333;50.958;6.770;2023-11-21T07:48:54;10.70;99.90
2647;DHT22;1333;50.958;6.770;2023-11-21T07:51:20;10.70;99.90
2647;DHT22;1333;50.958;6.770;2023-11-21T07:53:46;10.80;99.90
2647;DHT22;1333;50.958;6.770;2023-11-21T07:56:11;10.90;99.90
2647;DHT22;1333;50.958;6.770;2023-11-21T07:58:38;10.90;99.90
2647;DHT22;1333;50.958;6.770;2023-11-21T08:01:04;11.00;99.90
2647;DHT22;1333;50.958;6.770;2023-11-21T08:03:30;11.10;99.90
2647;DHT22;1333;50.958;6.770;2023-11-21T08:05:57;11.20;99.90
2647;DHT22;1333;50.958;6.770;2023-11-21T08:08:23;11.40;99.90
2647;DHT22;1333;50.958;6.770;2023-11-21T08:10:49;11.50;99.90
2647;DHT22;1333;50.958;6.770;2023-11-21T08:13:22;11.60;99.90
2647;DHT22;1333;50.958;6.770;2023-11-21T08:15:48;11.70;99.90
2647;DHT22;1333;50.958;6.770;2023-11-21T08:18:13;11.80;99.90
2647;DHT22;1333;50.958;6.770;2023-11-21T08:20:40;11.80;99.90
2647;DHT22;1333;50.958;6.770;2023-11-21T08:23:06;11.80;99.90
2647;DHT22;1333;50.958;6.770;2023-11-21T08:25:32;11.80;99.90
2647;DHT22;1333;50.958;6.770;2023-11-21T08:27:58;11.80;99.90
2647;DHT22;1333;50.958;6.770;2023-11-21T08:30:24;11.70;99.90
2647;DHT22;1333;50.958;6.770;2023-11-21T08:32:50;11.70;99.90
2647;DHT22;1333;50.958;6.770;2023-11-21T08:35:17;11.60;99.90
2647;DHT22;1333;50.958;6.770;2023-11-21T08:37:43;11.60;99.90
2647;DHT22;1333;50.958;6.770;2023-11-21T08:40:09;11.50;99.90
2647;DHT22;1333;50.958;6.770;2023-11-21T08:42:35;11.50;99.90
2647;DHT22;1333;50.958;6.770;2023-11-21T08:45:00;11.40;99.90
2647;DHT22;1333;50.958;6.770;2023-11-21T08:47:26;11.40;99.90
2647;DHT22;1333;50.958;6.770;2023-11-21T08:49:52;11.40;99.90
2647;DHT22;1333;50.958;6.770;2023-11-21T08:52:18;11.40;99.90
2647;DHT22;1333;50.958;6.770;2023-11-21T08:54:46;11.50;99.90
2647;DHT22;1333;50.958;6.770;2023-11-21T08:57:11;11.60;99.90
2647;DHT22;1333;50.958;6.770;2023-11-21T08:59:37;11.60;99.90
2647;DHT22;1333;50.958;6.770;2023-11-21T09:02:02;11.80;99.90
2647;DHT22;1333;50.958;6.770;2023-11-21T09:04:28;11.90;99.90
2647;DHT22;1333;50.958;6.770;2023-11-21T09:06:53;12.10;99.90
2647;DHT22;1333;50.958;6.770;2023-11-21T09:09:19;12.40;99.90
2647;DHT22;1333;50.958;6.770;2023-11-21T09:11:45;12.60;99.90
2647;DHT22;1333;50.958;6.770;2023-11-21T09:14:11;12.90;99.90
2647;DHT22;1333;50.958;6.770;2023-11-21T09:16:39;13.20;99.90
2647;DHT22;1333;50.958;6.770;2023-11-21T09:19:04;13.40;99.90
2647;DHT22;1333;50.958;6.770;2023-11-21T09:21:30;13.60;99.90
2647;DHT22;1333;50.958;6.770;2023-11-21T09:23:56;13.80;99.90
2647;DHT22;1333;50.958;6.770;2023-11-21T09:26:21;13.90;99.90
2647;DHT22;1333;50.958;6.770;2023-11-21T09:28:47;13.90;99.90
2647;DHT22;1333;50.958;6.770;2023-11-21T09:31:13;13.80;99.90
2647;DHT22;1333;50.958;6.770;2023-11-21T09:33:41;13.80;99.90
2647;DHT22;1333;50.958;6.770;2023-11-21T09:36:12;13.70;99.90
2647;DHT22;1333;50.958;6.770;2023-11-21T09:38:39;13.70;99.90
2647;DHT22;1333;50.958;6.770;2023-11-21T09:41:06;13.60;99.90
2647;DHT22;1333;50.958;6.770;2023-11-21T09:43:34;13.50;99.90
2647;DHT22;1333;50.958;6.770;2023-11-21T09:46:01;13.50;99.90
2647;DHT22;1333;50.958;6.770;2023-11-21T09:48:29;13.50;99.90
2647;DHT22;1333;50.958;6.770;2023-11-21T09:50:56;13.40;99.90
2647;DHT22;1333;50.958;6.770;2023-11-21T09:53:22;13.30;99.90
2647;DHT22;1333;50.958;6.770;2023-11-21T09:55:53;13.20;99.90
2647;DHT22;1333;50.958;6.770;2023-11-21T09:58:20;13.10;99.90
2647;DHT22;1333;50.958;6.770;2023-11-21T10:00:48;13.00;99.90
2647;DHT22;1333;50.958;6.770;2023-11-21T10:03:15;13.00;99.90
2647;DHT22;1333;50.958;6.770;2023-11-21T10:05:45;13.00;99.90
2647;DHT22;1333;50.958;6.770;2023-11-21T10:08:12;13.00;99.90
2647;DHT22;1333;50.958;6.770;2023-11-21T10:10:42;13.00;99.90
2647;DHT22;1333;50.958;6.770;2023-11-21T10:13:11;13.00;99.90
2647;DHT22;1333;50.958;6.770;2023-11-21T10:15:38;12.90;99.90
2647;DHT22;1333;50.958;6.770;2023-11-21T10:18:05;12.90;99.90
2647;DHT22;1333;50.958;6.770;2023-11-21T10:20:32;12.90;99.90
2647;DHT22;1333;50.958;6.770;2023-11-21T10:22:59;12.90;99.90
2647;DHT22;1333;50.958;6.770;2023-11-21T10:25:26;12.90;99.90
2647;DHT22;1333;50.958;6.770;2023-11-21T10:27:57;13.00;99.90
2647;DHT22;1333;50.958;6.770;2023-11-21T10:30:29;13.10;99.90
2647;DHT22;1333;50.958;6.770;2023-11-21T10:33:00;13.20;99.90
2647;DHT22;1333;50.958;6.770;2023-11-21T10:38:07;13.40;99.90
2647;DHT22;1333;50.958;6.770;2023-11-21T10:40:38;13.50;99.90
2647;DHT22;1333;50.958;6.770;2023-11-21T10:43:08;13.60;99.90
2647;DHT22;1333;50.958;6.770;2023-11-21T10:45:35;13.70;99.90
2647;DHT22;1333;50.958;6.770;2023-11-21T10:48:08;13.80;99.90
2647;DHT22;1333;50.958;6.770;2023-11-21T10:50:35;13.90;99.90
2647;DHT22;1333;50.958;6.770;2023-11-21T10:53:05;14.00;99.90
2647;DHT22;1333;50.958;6.770;2023-11-21T10:55:31;14.10;99.90
2647;DHT22;1333;50.958;6.770;2023-11-21T10:58:02;14.20;99.90
2647;DHT22;1333;50.958;6.770;2023-11-21T11:00:30;14.30;99.90
2647;DHT22;1333;50.958;6.770;2023-11-21T11:02:56;14.40;99.90
2647;DHT22;1333;50.958;6.770;2023-11-21T11:05:25;14.50;99.90
2647;DHT22;1333;50.958;6.770;2023-11-21T11:07:56;14.70;99.90
2647;DHT22;1333;50.958;6.770;2023-11-21T11:10:25;14.80;99.90
2647;DHT22;1333;50.958;6.770;2023-11-21T11:12:53;14.90;99.90
2647;DHT22;1333;50.958;6.770;2023-11-21T11:15:19;15.00;99.90
2647;DHT22;1333;50.958;6.770;2023-11-21T11:17:46;14.90;99.90
2647;DHT22;1333;50.958;6.770;2023-11-21T11:20:13;14.80;99.90
2647;DHT22;1333;50.958;6.770;2023-11-21T11:22:56;14.80;99.90
2647;DHT22;1333;50.958;6.770;2023-11-21T11:25:49;14.80;99.90
2647;DHT22;1333;50.958;6.770;2023-11-21T11:31:28;14.60;99.90
2647;DHT22;1333;50.958;6.770;2023-11-21T11:34:01;14.60;99.90
2647;DHT22;1333;50.958;6.770;2023-11-21T11:36:35;14.50;99.90
2647;DHT22;1333;50.958;6.770;2023-11-21T11:39:03;14.50;99.90
2647;DHT22;1333;50.958;6.770;2023-11-21T11:41:31;14.50;99.90
2647;DHT22;1333;50.958;6.770;2023-11-21T11:44:02;14.40;99.90
2647;DHT22;1333;50.958;6.770;2023-11-21T11:46:59;14.20;99.90
2647;DHT22;1333;50.958;6.770;2023-11-21T11:49:28;14.10;99.90
2647;DHT22;1333;50.958;6.770;2023-11-21T11:54:57;13.90;99.90
2647;DHT22;1333;50.958;6.770;2023-11-21T11:57:29;13.80;99.90
2647;DHT22;1333;50.958;6.770;2023-11-21T12:02:53;13.80;99.90
2647;DHT22;1333;50.958;6.770;2023-11-21T12:05:23;13.70;99.90
2647;DHT22;1333;50.958;6.770;2023-11-21T12:07:59;13.60;99.90
2647;DHT22;1333;50.958;6.770;2023-11-21T12:10:30;13.60;99.90
2647;DHT22;1333;50.958;6.770;2023-11-21T12:13:01;13.60;99.90
2647;DHT22;1333;50.958;6.770;2023-11-21T12:15:27;13.60;99.90
2647;DHT22;1333;50.958;6.770;2023-11-21T12:17:55;13.70;99.90
2647;DHT22;1333;50.958;6.770;2023-11-21T12:20:22;13.70;99.90
2647;DHT22;1333;50.958;6.770;2023-11-21T12:22:56;13.80;99.90
2647;DHT22;1333;50.958;6.770;2023-11-21T12:25:25;13.90;99.90
2647;DHT22;1333;50.958;6.770;2023-11-21T12:27:54;14.00;99.90
2647;DHT22;1333;50.958;6.770;2023-11-21T12:30:25;14.10;99.90
2647;DHT22;1333;50.958;6.770;2023-11-21T12:32:54;14.10;99.90
2647;DHT22;1333;50.958;6.770;2023-11-21T12:35:27;14.10;99.90
2647;DHT22;1333;50.958;6.770;2023-11-21T12:37:55;14.10;99.90
2647;DHT22;1333;50.958;6.770;2023-11-21T12:40:23;14.10;99.90
2647;DHT22;1333;50.958;6.770;2023-11-21T12:42:51;14.10;99.90
2647;DHT22;1333;50.958;6.770;2023-11-21T12:48:02;14.40;99.90
2647;DHT22;1333;50.958;6.770;2023-11-21T12:50:33;14.50;99.90
2647;DHT22;1333;50.958;6.770;2023-11-21T12:53:01;14.50;99.90
2647;DHT22;1333;50.958;6.770;2023-11-21T12:55:30;14.50;99.90
2647;DHT22;1333;50.958;6.770;2023-11-21T12:57:56;14.50;99.90
2647;DHT22;1333;50.958;6.770;2023-11-21T13:00:31;14.70;99.90
2647;DHT22;1333;50.958;6.770;2023-11-21T13:02:59;15.10;99.90
2647;DHT22;1333;50.958;6.770;2023-11-21T13:05:34;15.50;99.90
2647;DHT22;1333;50.958;6.770;2023-11-21T13:08:03;15.80;99.90
2647;DHT22;1333;50.958;6.770;2023-11-21T13:10:32;16.00;99.90
2647;DHT22;1333;50.958;6.770;2023-11-21T13:12:58;16.00;99.90
2647;DHT22;1333;50.958;6.770;2023-11-21T13:15:25;16.00;99.90
2647;DHT22;1333;50.958;6.770;2023-11-21T13:17:52;15.90;99.90
2647;DHT22;1333;50.958;6.770;2023-11-21T13:20:19;15.70;99.90
2647;DHT22;1333;50.958;6.770;2023-11-21T13:22:56;15.60;99.90
2647;DHT22;1333;50.958;6.770;2023-11-21T13:25:25;15.30;99.90
2647;DHT22;1333;50.958;6.770;2023-11-21T13:27:55;15.10;99.90
2647;DHT22;1333;50.958;6.770;2023-11-21T13:30:21;15.00;99.90
2647;DHT22;1333;50.958;6.770;2023-11-21T13:33:02;14.90;99.90
2647;DHT22;1333;50.958;6.770;2023-11-21T13:35:30;14.70;99.90
2647;DHT22;1333;50.958;6.770;2023-11-21T13:38:09;14.60;99.90
2647;DHT22;1333;50.958;6.770;2023-11-21T13:40:36;14.50;99.90
2647;DHT22;1333;50.958;6.770;2023-11-21T13:43:12;14.40;99.90
2647;DHT22;1333;50.958;6.770;2023-11-21T13:45:41;14.40;99.90
2647;DHT22;1333;50.958;6.770;2023-11-21T13:48:07;14.30;99.90
2647;DHT22;1333;50.958;6.770;2023-11-21T13:50:36;14.20;99.90
2647;DHT22;1333;50.958;6.770;2023-11-21T13:53:03;14.10;99.90
2647;DHT22;1333;50.958;6.770;2023-11-21T13:55:36;14.00;99.90
2647;DHT22;1333;50.958;6.770;2023-11-21T13:58:02;13.90;99.90
2647;DHT22;1333;50.958;6.770;2023-11-21T14:00:29;13.80;99.90
2647;DHT22;1333;50.958;6.770;2023-11-21T14:03:10;13.70;99.90
2647;DHT22;1333;50.958;6.770;2023-11-21T14:05:44;13.60;99.90
2647;DHT22;1333;50.958;6.770;2023-11-21T14:08:12;13.60;99.90
2647;DHT22;1333;50.958;6.770;2023-11-21T14:10:42;13.50;99.90
2647;DHT22;1333;50.958;6.770;2023-11-21T14:13:14;13.50;99.90
2647;DHT22;1333;50.958;6.770;2023-11-21T14:15:42;13.40;99.90
2647;DHT22;1333;50.958;6.770;2023-11-21T14:18:10;13.40;99.90
2647;DHT22;1333;50.958;6.770;2023-11-21T14:20:37;13.40;99.90
2647;DHT22;1333;50.958;6.770;2023-11-21T14:23:06;13.40;99.90
2647;DHT22;1333;50.958;6.770;2023-11-21T14:25:34;13.30;99.90
2647;DHT22;1333;50.958;6.770;2023-11-21T14:28:02;13.30;99.90
2647;DHT22;1333;50.958;6.770;2023-11-21T14:30:29;13.20;99.90
2647;DHT22;1333;50.958;6.770;2023-11-21T14:33:00;13.10;99.90
2647;DHT22;1333;50.958;6.770;2023-11-21T14:35:26;13.10;99.90
2647;DHT22;1333;50.958;6.770;2023-11-21T14:37:52;13.00;99.90
2647;DHT22;1333;50.958;6.770;2023-11-21T14:40:18;12.90;99.90
2647;DHT22;1333;50.958;6.770;2023-11-21T14:42:48;12.90;99.90
2647;DHT22;1333;50.958;6.770;2023-11-21T14:45:13;12.80;99.90
2647;DHT22;1333;50.958;6.770;2023-11-21T14:47:44;12.70;99.90
2647;DHT22;1333;50.958;6.770;2023-11-21T14:50:16;12.70;99.90
2647;DHT22;1333;50.958;6.770;2023-11-21T14:53:04;12.70;99.90
2647;DHT22;1333;50.958;6.770;2023-11-21T14:55:32;12.60;99.90
2647;DHT22;1333;50.958;6.770;2023-11-21T14:58:06;12.50;99.90
2647;DHT22;1333;50.958;6.770;2023-11-21T15:00:37;12.50;99.90
2647;DHT22;1333;50.958;6.770;2023-11-21T15:03:04;12.50;99.90
2647;DHT22;1333;50.958;6.770;2023-11-21T15:05:30;12.40;99.90
2647;DHT22;1333;50.958;6.770;2023-11-21T15:07:56;12.40;99.90
2647;DHT22;1333;50.958;6.770;2023-11-21T15:10:34;12.40;99.90
2647;DHT22;1333;50.958;6.770;2023-11-21T15:13:12;12.40;99.90
2647;DHT22;1333;50.958;6.770;2023-11-21T15:15:40;12.40;99.90
2647;DHT22;1333;50.958;6.770;2023-11-21T15:18:05;12.40;99.90
2647;DHT22;1333;50.958;6.770;2023-11-21T15:20:32;12.30;99.90
2647;DHT22;1333;50.958;6.770;2023-11-21T15:22:57;12.30;99.90
2647;DHT22;1333;50.958;6.770;2023-11-21T15:25:23;12.30;99.90
2647;DHT22;1333;50.958;6.770;2023-11-21T15:27:49;12.20;99.90
2647;DHT22;1333;50.958;6.770;2023-11-21T15:30:16;12.20;99.90
2647;DHT22;1333;50.958;6.770;2023-11-21T15:32:45;12.20;99.90
2647;DHT22;1333;50.958;6.770;2023-11-21T15:35:11;12.10;99.90
2647;DHT22;1333;50.958;6.770;2023-11-21T15:37:40;12.10;99.90
2647;DHT22;1333;50.958;6.770;2023-11-21T15:40:05;12.10;99.90
2647;DHT22;1333;50.958;6.770;2023-11-21T15:42:34;12.20;99.90
2647;DHT22;1333;50.958;6.770;2023-11-21T15:45:01;12.20;99.90
2647;DHT22;1333;50.958;6.770;2023-11-21T15:47:26;12.10;99.90
2647;DHT22;1333;50.958;6.770;2023-11-21T15:49:52;12.10;99.90
2647;DHT22;1333;50.958;6.770;2023-11-21T15:52:17;12.10;99.90
2647;DHT22;1333;50.958;6.770;2023-11-21T15:54:44;12.00;99.90
2647;DHT22;1333;50.958;6.770;2023-11-21T15:57:11;12.00;99.90
2647;DHT22;1333;50.958;6.770;2023-11-21T15:59:40;12.00;99.90
2647;DHT22;1333;50.958;6.770;2023-11-21T16:02:07;11.90;99.90
2647;DHT22;1333;50.958;6.770;2023-11-21T16:04:33;11.90;99.90
2647;DHT22;1333;50.958;6.770;2023-11-21T16:07:01;11.90;99.90
2647;DHT22;1333;50.958;6.770;2023-11-21T16:09:27;11.90;99.90
2647;DHT22;1333;50.958;6.770;2023-11-21T16:11:57;11.90;99.90
2647;DHT22;1333;50.958;6.770;2023-11-21T16:14:30;11.90;99.90
2647;DHT22;1333;50.958;6.770;2023-11-21T16:17:22;11.90;99.90
2647;DHT22;1333;50.958;6.770;2023-11-21T16:19:47;11.70;99.90